Time;durP1;ratioP1;P1;durP2;ratioP2;P2;SDS_P1;SDS_P2;PMS_P1;PMS_P2;Temp;Humidity;BMP_temperature;BMP_pressure;BME280_temperature;BME280_humidity;BME280_pressure;Samples;Min_cycle;Max_cycle;Signal;HPM_P1;HPM_P2
2021/06/14 00:02:25;;;;;;;9.50;3.20;;;;;;;;;;5016104;28;20439;-69
2021/06/14 00:04:51;;;;;;;3.70;2.60;;;;;;;;;;5034635;28;20414;-68
2021/06/14 00:07:19;;;;;;;5.37;4.20;;;;;;;;;;5033762;28;20490;-69
2021/06/14 00:09:45;;;;;;;5.20;3.60;;;;;;;;;;5034357;28;20458;-68
2021/06/14 00:12:13;;;;;;;3.10;2.40;;;;;;;;;;5033068;28;20428;-69
2021/06/14 00:14:39;;;;;;;4.93;3.03;;;;;;;;;;5033213;28;20403;-69
2021/06/14 00:17:05;;;;;;;5.33;3.40;;;;;;;;;;5033553;28;20437;-69
2021/06/14 00:19:31;;;;;;;7.17;3.80;;;;;;;;;;5034249;28;20513;-68
2021/06/14 00:21:57;;;;;;;5.33;3.10;;;;;;;;;;5034216;28;20451;-69
2021/06/14 00:24:23;;;;;;;5.40;3.30;;;;;;;;;;5015694;28;20436;-68
2021/06/14 00:26:49;;;;;;;7.93;3.43;;;;;;;;;;5014376;28;20443;-68
2021/06/14 00:29:15;;;;;;;11.73;4.27;;;;;;;;;;5030438;28;20502;-68
2021/06/14 00:31:41;;;;;;;7.03;3.40;;;;;;;;;;5033904;28;20512;-69
2021/06/14 00:34:08;;;;;;;4.40;3.40;;;;;;;;;;5032777;28;20466;-69
2021/06/14 00:36:34;;;;;;;4.93;3.70;;;;;;;;;;5034112;28;20447;-68
2021/06/14 00:39:00;;;;;;;5.30;2.63;;;;;;;;;;5032533;28;20509;-68
2021/06/14 00:41:26;;;;;;;5.07;3.10;;;;;;;;;;5033881;28;20505;-68
2021/06/14 00:43:52;;;;;;;6.87;4.13;;;;;;;;;;5032928;28;21001;-68
2021/06/14 00:46:18;;;;;;;6.57;3.70;;;;;;;;;;5033876;28;20724;-68
2021/06/14 00:48:44;;;;;;;6.77;4.07;;;;;;;;;;5032562;28;20599;-68
2021/06/14 00:51:10;;;;;;;6.33;3.33;;;;;;;;;;5034370;28;20543;-68
2021/06/14 00:53:41;;;;;;;5.40;3.90;;;;;;;;;;5022763;28;20450;-68
2021/06/14 00:56:09;;;;;;;8.70;4.63;;;;;;;;;;5013776;28;20400;-68
2021/06/14 00:58:36;;;;;;;8.50;3.97;;;;;;;;;;5016035;28;20518;-68
2021/06/14 01:01:03;;;;;;;12.10;3.93;;;;;;;;;;5027937;28;20453;-68
2021/06/14 01:03:29;;;;;;;6.00;3.83;;;;;;;;;;5020446;28;20491;-68
2021/06/14 01:05:58;;;;;;;8.13;3.40;;;;;;;;;;5013654;28;20411;-68
2021/06/14 01:08:24;;;;;;;7.37;3.30;;;;;;;;;;5013628;28;20510;-68
2021/06/14 01:10:51;;;;;;;5.60;3.20;;;;;;;;;;5013714;28;20468;-68
2021/06/14 01:13:28;;;;;;;4.13;2.90;;;;;;;;;;5016960;28;20422;-68
2021/06/14 01:15:54;;;;;;;8.53;3.70;;;;;;;;;;5031874;28;20406;-68
2021/06/14 01:18:26;;;;;;;5.57;3.77;;;;;;;;;;5032251;28;20459;-68
2021/06/14 01:20:56;;;;;;;4.40;2.80;;;;;;;;;;5032619;28;20838;-68
2021/06/14 01:23:40;;;;;;;6.00;3.37;;;;;;;;;;5014812;28;20488;-68
2021/06/14 01:26:22;;;;;;;8.53;3.27;;;;;;;;;;5033127;28;20425;-68
2021/06/14 01:28:54;;;;;;;13.40;4.63;;;;;;;;;;5031335;28;20863;-68
2021/06/14 01:31:21;;;;;;;5.50;3.90;;;;;;;;;;5032861;28;20907;-68
2021/06/14 01:33:47;;;;;;;6.93;4.63;;;;;;;;;;5031812;28;20423;-68
2021/06/14 01:36:16;;;;;;;5.00;3.80;;;;;;;;;;5033098;28;20430;-68
2021/06/14 01:38:44;;;;;;;8.80;4.13;;;;;;;;;;5031639;28;20465;-68
2021/06/14 01:41:11;;;;;;;5.73;3.80;;;;;;;;;;5032976;28;20430;-68
2021/06/14 01:43:38;;;;;;;7.70;4.03;;;;;;;;;;5031684;28;20534;-68
2021/06/14 01:46:06;;;;;;;5.17;3.47;;;;;;;;;;5031337;28;20451;-68
2021/06/14 01:48:34;;;;;;;9.97;4.50;;;;;;;;;;5017787;28;20430;-68
2021/06/14 01:51:00;;;;;;;6.30;4.17;;;;;;;;;;5032790;28;20537;-68
2021/06/14 01:53:26;;;;;;;7.53;4.67;;;;;;;;;;5031622;28;20410;-68
2021/06/14 01:55:55;;;;;;;6.20;3.80;;;;;;;;;;5033318;28;20395;-68
2021/06/14 01:58:22;;;;;;;4.50;3.27;;;;;;;;;;5029996;28;20430;-68
2021/06/14 02:00:49;;;;;;;5.00;2.93;;;;;;;;;;5031990;28;20478;-68
2021/06/14 02:03:16;;;;;;;7.50;3.13;;;;;;;;;;5020232;28;20436;-68
2021/06/14 02:05:43;;;;;;;5.17;3.27;;;;;;;;;;5028942;28;20435;-68
2021/06/14 02:08:10;;;;;;;4.17;2.77;;;;;;;;;;5034371;28;20403;-68
2021/06/14 02:10:37;;;;;;;3.80;2.63;;;;;;;;;;5019717;28;20781;-68
2021/06/14 02:13:04;;;;;;;4.23;2.27;;;;;;;;;;5021185;28;20410;-68
2021/06/14 02:15:31;;;;;;;5.73;2.47;;;;;;;;;;5025575;28;20480;-68
2021/06/14 02:17:59;;;;;;;5.00;2.83;;;;;;;;;;5032598;28;20773;-68
2021/06/14 02:20:25;;;;;;;5.37;2.83;;;;;;;;;;5021357;28;20871;-68
2021/06/14 02:22:51;;;;;;;4.50;2.90;;;;;;;;;;5012715;28;20923;-69
2021/06/14 02:25:18;;;;;;;4.53;3.20;;;;;;;;;;5023158;28;20442;-68
2021/06/14 02:27:44;;;;;;;4.33;2.90;;;;;;;;;;5031624;28;20919;-68
2021/06/14 02:30:14;;;;;;;5.27;3.00;;;;;;;;;;5031652;23;20546;-74
2021/06/14 02:32:41;;;;;;;7.33;3.77;;;;;;;;;;5011839;28;20455;-74
2021/06/14 02:35:08;;;;;;;6.53;3.57;;;;;;;;;;5011832;28;20731;-74
2021/06/14 02:37:36;;;;;;;3.83;2.73;;;;;;;;;;5012710;28;20431;-74
2021/06/14 02:40:04;;;;;;;4.90;2.40;;;;;;;;;;5011905;28;20998;-74
2021/06/14 02:42:30;;;;;;;7.10;3.20;;;;;;;;;;5016418;28;20396;-74
2021/06/14 02:44:56;;;;;;;6.80;2.80;;;;;;;;;;5015248;28;20429;-74
2021/06/14 02:47:22;;;;;;;9.27;3.10;;;;;;;;;;5016363;28;20931;-73
2021/06/14 02:49:49;;;;;;;4.27;2.97;;;;;;;;;;5015291;28;20462;-74
2021/06/14 02:52:16;;;;;;;4.93;2.80;;;;;;;;;;5016428;28;20407;-74
2021/06/14 02:54:46;;;;;;;4.20;2.83;;;;;;;;;;5015245;28;20432;-74
2021/06/14 02:57:13;;;;;;;4.70;2.97;;;;;;;;;;5016002;28;20408;-74
2021/06/14 02:59:40;;;;;;;5.37;4.13;;;;;;;;;;5014788;28;20899;-74
2021/06/14 03:02:06;;;;;;;4.60;3.47;;;;;;;;;;5007832;28;20793;-74
2021/06/14 03:04:33;;;;;;;6.17;2.93;;;;;;;;;;4998598;28;20440;-74
2021/06/14 03:06:59;;;;;;;5.07;3.10;;;;;;;;;;5015970;28;20416;-74
2021/06/14 03:09:25;;;;;;;8.93;3.10;;;;;;;;;;5014709;28;20453;-74
2021/06/14 03:11:52;;;;;;;6.53;3.47;;;;;;;;;;5015835;28;20408;-74
2021/06/14 03:14:19;;;;;;;6.43;3.27;;;;;;;;;;5015049;28;20766;-74
2021/06/14 03:16:45;;;;;;;7.20;3.00;;;;;;;;;;4996493;28;20767;-74
2021/06/14 03:19:12;;;;;;;5.53;4.10;;;;;;;;;;4996102;28;20438;-74
2021/06/14 03:21:38;;;;;;;8.40;4.20;;;;;;;;;;5014896;28;20435;-74
2021/06/14 03:24:05;;;;;;;5.47;3.47;;;;;;;;;;5015598;28;20404;-74
2021/06/14 03:26:33;;;;;;;6.13;3.50;;;;;;;;;;5014666;28;20424;-74
2021/06/14 03:29:00;;;;;;;6.13;3.50;;;;;;;;;;5015517;28;20463;-74
2021/06/14 03:31:27;;;;;;;4.70;3.27;;;;;;;;;;5013031;28;20786;-74
2021/06/14 03:33:54;;;;;;;8.00;3.60;;;;;;;;;;5013937;28;20947;-73
2021/06/14 03:36:21;;;;;;;7.47;3.53;;;;;;;;;;5014377;28;20509;-74
2021/06/14 03:38:48;;;;;;;4.20;3.37;;;;;;;;;;5015241;28;20420;-74
2021/06/14 03:41:15;;;;;;;5.50;3.83;;;;;;;;;;4999470;28;20991;-74
2021/06/14 03:43:41;;;;;;;6.83;3.50;;;;;;;;;;4995938;28;20416;-73
2021/06/14 03:46:07;;;;;;;6.07;3.50;;;;;;;;;;5007949;28;20432;-74
2021/06/14 03:48:33;;;;;;;4.90;3.47;;;;;;;;;;5015213;28;20503;-74
2021/06/14 03:50:59;;;;;;;6.30;3.40;;;;;;;;;;5013295;28;20518;-74
2021/06/14 03:53:31;;;;;;;10.60;3.50;;;;;;;;;;5015358;28;20472;-74
2021/06/14 03:56:08;;;;;;;6.77;3.70;;;;;;;;;;5002543;28;20429;-74
2021/06/14 03:58:34;;;;;;;5.90;3.23;;;;;;;;;;4995440;28;20987;-74
2021/06/14 04:01:01;;;;;;;7.73;3.60;;;;;;;;;;5007174;28;20436;-74
2021/06/14 04:03:28;;;;;;;7.00;3.87;;;;;;;;;;5014870;28;20412;-74
2021/06/14 04:05:55;;;;;;;6.90;4.43;;;;;;;;;;5004081;28;20925;-74
2021/06/14 04:08:21;;;;;;;6.63;4.03;;;;;;;;;;4996694;28;20455;-74
2021/06/14 04:10:47;;;;;;;9.73;3.77;;;;;;;;;;5019642;28;20470;-74
2021/06/14 04:13:13;;;;;;;7.33;3.50;;;;;;;;;;5015032;28;20877;-74
2021/06/14 04:15:39;;;;;;;8.43;5.20;;;;;;;;;;5013483;28;20427;-74
2021/06/14 04:18:06;;;;;;;6.53;4.30;;;;;;;;;;5014629;28;20411;-74
2021/06/14 04:20:32;;;;;;;10.03;4.10;;;;;;;;;;5013549;28;20486;-74
2021/06/14 04:22:58;;;;;;;8.13;4.90;;;;;;;;;;5014630;28;20412;-74
2021/06/14 04:25:24;;;;;;;9.97;3.77;;;;;;;;;;5014025;28;20431;-74
2021/06/14 04:27:50;;;;;;;7.00;3.90;;;;;;;;;;5015234;28;20400;-74
2021/06/14 04:30:17;;;;;;;7.90;4.63;;;;;;;;;;5013745;28;20474;-74
2021/06/14 04:32:44;;;;;;;10.30;5.53;;;;;;;;;;5014718;28;20404;-74
2021/06/14 04:35:10;;;;;;;6.97;4.57;;;;;;;;;;5013320;28;20424;-74
2021/06/14 04:37:37;;;;;;;5.23;4.37;;;;;;;;;;5014289;28;20400;-74
2021/06/14 04:40:04;;;;;;;7.30;4.10;;;;;;;;;;5007438;28;20471;-74
2021/06/14 04:42:30;;;;;;;5.87;3.97;;;;;;;;;;4994789;28;20452;-74
2021/06/14 04:44:56;;;;;;;4.97;4.13;;;;;;;;;;4995356;28;20415;-74
2021/06/14 04:47:22;;;;;;;9.17;4.80;;;;;;;;;;5014417;28;20780;-74
2021/06/14 04:49:48;;;;;;;5.20;3.73;;;;;;;;;;5012934;28;20559;-75
2021/06/14 04:52:14;;;;;;;11.70;4.30;;;;;;;;;;4994808;28;20420;-74
2021/06/14 04:54:41;;;;;;;6.67;4.10;;;;;;;;;;4994396;28;20408;-74
2021/06/14 04:57:07;;;;;;;7.30;4.93;;;;;;;;;;5012527;28;20428;-74
2021/06/14 04:59:33;;;;;;;6.00;3.93;;;;;;;;;;5013734;28;20427;-74
2021/06/14 05:01:59;;;;;;;7.37;4.97;;;;;;;;;;5012514;28;20522;-74
2021/06/14 05:04:25;;;;;;;7.27;4.43;;;;;;;;;;5013008;28;20431;-74
2021/06/14 05:06:51;;;;;;;9.40;3.90;;;;;;;;;;5012601;28;20577;-74
2021/06/14 05:09:17;;;;;;;5.23;4.53;;;;;;;;;;5012818;28;20459;-75
2021/06/14 05:11:44;;;;;;;9.33;5.67;;;;;;;;;;4998185;28;20460;-74
2021/06/14 05:14:10;;;;;;;9.33;4.13;;;;;;;;;;5003892;28;20427;-74
2021/06/14 05:16:36;;;;;;;5.53;3.77;;;;;;;;;;4999719;28;20432;-74
2021/06/14 05:19:02;;;;;;;9.20;4.50;;;;;;;;;;4993898;28;20436;-74
2021/06/14 05:21:28;;;;;;;6.27;4.07;;;;;;;;;;5005559;28;20443;-73
2021/06/14 05:23:54;;;;;;;4.77;3.63;;;;;;;;;;5013471;28;20491;-74
2021/06/14 05:26:20;;;;;;;7.50;3.70;;;;;;;;;;5012344;28;20873;-74
2021/06/14 05:28:46;;;;;;;5.63;3.80;;;;;;;;;;5013374;28;20455;-74
2021/06/14 05:31:12;;;;;;;7.90;4.63;;;;;;;;;;5003242;28;20461;-74
2021/06/14 05:33:38;;;;;;;4.93;3.97;;;;;;;;;;4993738;28;20416;-74
2021/06/14 05:36:04;;;;;;;5.10;4.60;;;;;;;;;;5001109;28;20427;-74
2021/06/14 05:38:30;;;;;;;6.10;3.87;;;;;;;;;;5013058;28;20514;-74
2021/06/14 05:40:56;;;;;;;5.47;3.97;;;;;;;;;;5012018;28;20432;-74
2021/06/14 05:43:23;;;;;;;6.43;4.40;;;;;;;;;;5013170;28;20411;-74
2021/06/14 05:45:49;;;;;;;13.50;4.70;;;;;;;;;;5006853;28;20432;-74
2021/06/14 05:48:15;;;;;;;7.20;4.10;;;;;;;;;;5003255;28;20432;-74
2021/06/14 05:50:41;;;;;;;5.30;4.00;;;;;;;;;;5007534;28;20800;-74
2021/06/14 05:53:07;;;;;;;6.33;4.10;;;;;;;;;;4993615;28;20463;-74
2021/06/14 05:55:33;;;;;;;6.10;4.30;;;;;;;;;;4996769;28;20430;-74
2021/06/14 05:57:59;;;;;;;7.40;4.13;;;;;;;;;;5014201;28;20487;-74
2021/06/14 06:00:25;;;;;;;8.37;4.03;;;;;;;;;;5013515;28;20432;-73
2021/06/14 06:02:51;;;;;;;5.20;3.53;;;;;;;;;;5014338;28;20920;-74
2021/06/14 06:05:17;;;;;;;8.30;4.27;;;;;;;;;;5013412;28;20408;-74
2021/06/14 06:07:43;;;;;;;4.40;3.47;;;;;;;;;;5013785;28;20419;-74
2021/06/14 06:10:10;;;;;;;7.93;4.60;;;;;;;;;;5013193;28;20448;-74
2021/06/14 06:12:37;;;;;;;6.63;3.60;;;;;;;;;;5012887;28;20518;-74
2021/06/14 06:15:05;;;;;;;9.53;3.60;;;;;;;;;;5015306;28;20457;-74
2021/06/14 06:17:32;;;;;;;4.83;3.13;;;;;;;;;;5015783;28;20855;-69
2021/06/14 06:19:58;;;;;;;5.83;3.90;;;;;;;;;;5017057;28;20470;-69
2021/06/14 06:22:24;;;;;;;3.20;2.80;;;;;;;;;;5011476;28;20460;-71
2021/06/14 06:24:50;;;;;;;4.90;3.60;;;;;;;;;;4997295;28;20411;-69
2021/06/14 06:27:16;;;;;;;4.43;3.40;;;;;;;;;;5011897;28;20582;-69
2021/06/14 06:29:42;;;;;;;5.53;2.97;;;;;;;;;;5016477;28;20986;-71
2021/06/14 06:32:09;;;;;;;4.63;3.13;;;;;;;;;;5015417;28;20538;-70
2021/06/14 06:34:35;;;;;;;8.33;4.53;;;;;;;;;;5016547;28;20498;-70
2021/06/14 06:37:01;;;;;;;5.10;3.27;;;;;;;;;;5014733;28;20423;-68
2021/06/14 06:39:27;;;;;;;6.23;3.60;;;;;;;;;;5014516;28;20435;-69
2021/06/14 06:41:53;;;;;;;11.60;3.83;;;;;;;;;;5014347;28;20427;-69
2021/06/14 06:44:19;;;;;;;6.63;3.20;;;;;;;;;;5015845;28;20427;-73
2021/06/14 06:46:45;;;;;;;9.27;3.43;;;;;;;;;;5013880;28;20454;-71
2021/06/14 06:49:11;;;;;;;5.60;3.47;;;;;;;;;;5014617;28;20521;-72
2021/06/14 06:51:37;;;;;;;4.77;3.17;;;;;;;;;;5013718;28;20423;-72
2021/06/14 06:54:13;;;;;;;6.93;2.80;;;;;;;;;;5015369;28;20482;-72
2021/06/14 06:56:41;;;;;;;7.00;3.30;;;;;;;;;;5014394;28;20861;-72
2021/06/14 06:59:07;;;;;;;7.30;3.60;;;;;;;;;;5013826;28;20948;-72
2021/06/14 07:01:33;;;;;;;8.37;3.80;;;;;;;;;;5005631;28;20431;-71
2021/06/14 07:03:59;;;;;;;5.17;2.70;;;;;;;;;;5013109;28;20635;-72
2021/06/14 07:06:25;;;;;;;5.63;3.13;;;;;;;;;;5012942;28;20903;-72
2021/06/14 07:08:54;;;;;;;4.17;3.13;;;;;;;;;;5007022;28;20493;-72
2021/06/14 07:11:20;;;;;;;5.00;3.00;;;;;;;;;;5006630;28;20836;-72
2021/06/14 07:13:46;;;;;;;6.90;3.13;;;;;;;;;;5011914;28;20412;-72
2021/06/14 07:16:12;;;;;;;4.40;3.40;;;;;;;;;;5011855;28;20412;-72
2021/06/14 07:18:38;;;;;;;7.53;3.30;;;;;;;;;;5012657;28;21007;-72
2021/06/14 07:21:04;;;;;;;5.63;3.47;;;;;;;;;;5008090;28;20431;-72
2021/06/14 07:23:30;;;;;;;4.47;3.10;;;;;;;;;;5010769;28;20535;-72
2021/06/14 07:25:56;;;;;;;6.73;3.40;;;;;;;;;;5012962;28;20412;-72
2021/06/14 07:28:22;;;;;;;5.07;2.70;;;;;;;;;;5013603;28;20821;-72
2021/06/14 07:30:48;;;;;;;7.83;3.10;;;;;;;;;;5013449;28;20834;-72
2021/06/14 07:33:14;;;;;;;3.67;3.20;;;;;;;;;;5012530;28;20416;-72
2021/06/14 07:35:40;;;;;;;4.83;2.73;;;;;;;;;;5007342;28;20435;-72
2021/06/14 07:38:06;;;;;;;7.33;3.23;;;;;;;;;;5008234;28;20428;-72
2021/06/14 07:40:32;;;;;;;8.63;3.93;;;;;;;;;;5006959;28;20430;-72
2021/06/14 07:42:59;;;;;;;4.47;2.60;;;;;;;;;;5012564;28;20912;-71
2021/06/14 07:45:25;;;;;;;4.97;2.83;;;;;;;;;;5011763;28;20816;-72
2021/06/14 07:47:54;;;;;;;5.43;3.47;;;;;;;;;;5007774;28;20446;-72
2021/06/14 07:50:21;;;;;;;5.70;2.60;;;;;;;;;;5011130;28;20842;-72
2021/06/14 07:52:48;;;;;;;4.20;2.50;;;;;;;;;;5012364;28;20438;-73
2021/06/14 07:55:14;;;;;;;3.77;2.90;;;;;;;;;;5013515;28;20513;-72
2021/06/14 07:57:40;;;;;;;10.53;3.20;;;;;;;;;;5010977;28;20549;-71
2021/06/14 08:00:08;;;;;;;6.97;2.90;;;;;;;;;;5005554;28;20515;-71
2021/06/14 08:02:39;;;;;;;5.60;2.87;;;;;;;;;;5007883;28;20435;-72
2021/06/14 08:05:06;;;;;;;5.90;2.80;;;;;;;;;;5012230;28;20926;-71
2021/06/14 08:07:33;;;;;;;3.87;2.80;;;;;;;;;;5013074;28;20423;-72
2021/06/14 08:10:03;;;;;;;5.10;3.27;;;;;;;;;;5013417;28;20513;-72
2021/06/14 08:12:30;;;;;;;4.17;2.70;;;;;;;;;;5009747;28;20451;-71
2021/06/14 08:14:56;;;;;;;4.47;2.70;;;;;;;;;;5013002;28;20447;-71
2021/06/14 08:17:22;;;;;;;7.10;3.00;;;;;;;;;;5011430;28;20420;-72
2021/06/14 08:20:34;;;;;;;7.40;2.90;;;;;;;;;;5011727;28;20432;-72
2021/06/14 08:25:10;;;;;;;4.17;2.93;;;;;;;;;;5012210;28;20424;-72
2021/06/14 08:27:40;;;;;;;4.13;2.13;;;;;;;;;;5011225;28;20542;-72
2021/06/14 08:30:08;;;;;;;5.50;2.70;;;;;;;;;;5012478;28;20529;-72
2021/06/14 08:32:36;;;;;;;4.43;2.60;;;;;;;;;;5011837;28;20486;-72
2021/06/14 08:35:02;;;;;;;6.97;3.30;;;;;;;;;;5012720;28;20793;-72
2021/06/14 08:37:28;;;;;;;4.50;2.93;;;;;;;;;;5010606;28;20448;-72
2021/06/14 08:39:54;;;;;;;5.20;3.27;;;;;;;;;;5008231;28;20462;-72
2021/06/14 08:42:20;;;;;;;4.80;3.20;;;;;;;;;;5012147;28;20519;-72
2021/06/14 08:44:46;;;;;;;6.10;3.77;;;;;;;;;;5011425;28;20411;-73
2021/06/14 08:47:13;;;;;;;7.53;3.70;;;;;;;;;;5008498;28;20424;-72
2021/06/14 08:49:39;;;;;;;8.97;4.60;;;;;;;;;;5005185;28;20512;-72
2021/06/14 08:52:06;;;;;;;5.83;3.77;;;;;;;;;;5011436;28;20432;-72
2021/06/14 08:54:32;;;;;;;8.77;3.50;;;;;;;;;;5012208;28;20870;-72
2021/06/14 08:56:59;;;;;;;5.43;3.30;;;;;;;;;;5011307;28;20478;-72
2021/06/14 08:59:25;;;;;;;5.07;3.27;;;;;;;;;;5010987;28;20555;-72
2021/06/14 09:01:51;;;;;;;8.20;3.40;;;;;;;;;;5010976;28;20955;-73
2021/06/14 09:04:19;;;;;;;5.10;3.13;;;;;;;;;;5008574;28;20470;-72
2021/06/14 09:06:45;;;;;;;6.37;3.30;;;;;;;;;;5009310;28;20435;-72
2021/06/14 09:09:11;;;;;;;12.03;3.30;;;;;;;;;;5009335;28;20463;-72
2021/06/14 09:11:47;;;;;;;5.03;2.80;;;;;;;;;;5010156;28;20474;-73
2021/06/14 09:14:17;;;;;;;4.10;2.30;;;;;;;;;;5008861;28;20446;-73
2021/06/14 09:16:43;;;;;;;4.47;2.60;;;;;;;;;;5011125;28;20423;-72
2021/06/14 09:19:22;;;;;;;4.90;2.03;;;;;;;;;;5011330;28;20451;-72
2021/06/14 09:21:54;;;;;;;4.20;2.10;;;;;;;;;;5005102;28;20474;-72
2021/06/14 09:24:20;;;;;;;7.90;2.60;;;;;;;;;;5011348;28;20939;-72
2021/06/14 09:26:46;;;;;;;4.83;2.80;;;;;;;;;;5008666;28;20814;-72
2021/06/14 09:29:20;;;;;;;5.97;3.03;;;;;;;;;;5009412;28;20471;-72
2021/06/14 09:31:48;;;;;;;5.23;2.30;;;;;;;;;;5003335;28;20424;-73
2021/06/14 09:34:14;;;;;;;3.20;2.30;;;;;;;;;;5009175;28;20514;-73
2021/06/14 09:36:41;;;;;;;6.23;2.80;;;;;;;;;;5010990;28;20911;-73
2021/06/14 09:39:15;;;;;;;5.83;2.73;;;;;;;;;;5010598;28;20534;-73
2021/06/14 09:41:43;;;;;;;5.30;2.40;;;;;;;;;;5001033;28;20420;-73
2021/06/14 09:44:09;;;;;;;5.30;2.53;;;;;;;;;;5008396;28;20469;-72
2021/06/14 09:46:36;;;;;;;4.23;2.50;;;;;;;;;;5012259;28;20441;-73
2021/06/14 09:49:04;;;;;;;3.37;2.40;;;;;;;;;;5006627;28;21003;-72
2021/06/14 09:51:31;;;;;;;6.23;3.10;;;;;;;;;;5011548;28;20419;-73
2021/06/14 09:53:57;;;;;;;4.53;2.60;;;;;;;;;;5010352;28;20427;-72
2021/06/14 09:56:23;;;;;;;3.40;2.20;;;;;;;;;;5012931;28;20446;-72
2021/06/14 09:58:50;;;;;;;4.73;2.90;;;;;;;;;;5012892;28;20903;-72
2021/06/14 10:01:26;;;;;;;6.07;3.00;;;;;;;;;;5008040;28;20464;-72
2021/06/14 10:03:53;;;;;;;5.23;2.40;;;;;;;;;;5009703;28;20419;-73
2021/06/14 10:06:33;;;;;;;4.20;2.20;;;;;;;;;;5008840;28;20408;-73
2021/06/14 10:08:59;;;;;;;12.90;3.30;;;;;;;;;;5007674;28;20544;-73
2021/06/14 10:11:31;;;;;;;5.63;2.70;;;;;;;;;;5007815;28;20412;-73
2021/06/14 10:14:05;;;;;;;4.37;2.37;;;;;;;;;;5010961;28;20585;-73
2021/06/14 10:16:35;;;;;;;7.37;3.00;;;;;;;;;;5011632;28;20775;-73
2021/06/14 10:19:01;;;;;;;4.87;3.23;;;;;;;;;;5010898;28;20875;-73
2021/06/14 10:21:32;;;;;;;9.73;3.33;;;;;;;;;;5011259;28;20427;-73
2021/06/14 10:23:59;;;;;;;4.40;3.30;;;;;;;;;;5009260;28;20419;-72
2021/06/14 10:26:26;;;;;;;5.30;4.60;;;;;;;;;;5012329;28;20477;-73
2021/06/14 10:28:52;;;;;;;6.33;2.67;;;;;;;;;;5010469;28;20482;-73
2021/06/14 10:31:19;;;;;;;5.40;2.60;;;;;;;;;;5007678;28;20408;-72
2021/06/14 10:33:50;;;;;;;12.43;2.60;;;;;;;;;;5004536;28;20505;-73
2021/06/14 10:36:16;;;;;;;4.40;2.90;;;;;;;;;;5010333;28;20443;-73
2021/06/14 10:38:44;;;;;;;5.80;2.57;;;;;;;;;;5000128;28;20447;-72
2021/06/14 10:41:10;;;;;;;4.47;2.47;;;;;;;;;;5007939;28;20439;-73
2021/06/14 10:43:36;;;;;;;4.70;3.20;;;;;;;;;;5007114;28;20927;-72
2021/06/14 10:46:03;;;;;;;7.37;2.73;;;;;;;;;;5011775;28;20785;-72
2021/06/14 10:48:30;;;;;;;4.83;2.17;;;;;;;;;;5008440;28;20451;-72
2021/06/14 10:50:57;;;;;;;6.00;2.70;;;;;;;;;;5007096;28;20513;-72
2021/06/14 10:53:24;;;;;;;4.07;2.57;;;;;;;;;;5008833;28;20920;-72
2021/06/14 10:55:51;;;;;;;8.60;2.80;;;;;;;;;;5008866;28;20426;-72
2021/06/14 10:58:18;;;;;;;4.53;2.67;;;;;;;;;;5010115;28;20435;-72
2021/06/14 11:00:44;;;;;;;4.10;2.70;;;;;;;;;;5008778;28;20489;-72
2021/06/14 11:03:13;;;;;;;3.50;2.33;;;;;;;;;;5013491;28;20466;-72
2021/06/14 11:05:42;;;;;;;8.70;2.83;;;;;;;;;;5008240;28;20798;-72
2021/06/14 11:08:12;;;;;;;5.20;2.60;;;;;;;;;;5012732;28;20420;-72
2021/06/14 11:10:39;;;;;;;6.70;3.03;;;;;;;;;;5012198;28;20481;-72
2021/06/14 11:13:09;;;;;;;4.80;2.53;;;;;;;;;;5012564;28;20885;-73
2021/06/14 11:15:36;;;;;;;6.23;3.00;;;;;;;;;;5013213;28;20435;-73
2021/06/14 11:18:06;;;;;;;4.23;3.10;;;;;;;;;;5014308;28;20419;-73
2021/06/14 11:20:33;;;;;;;4.63;2.83;;;;;;;;;;5012496;28;20858;-73
2021/06/14 11:22:59;;;;;;;5.07;2.73;;;;;;;;;;5008861;28;20523;-72
2021/06/14 11:25:30;;;;;;;8.10;2.73;;;;;;;;;;5012290;28;20427;-73
2021/06/14 11:28:02;;;;;;;6.37;3.30;;;;;;;;;;5012249;28;20900;-73
2021/06/14 11:30:35;;;;;;;5.30;2.70;;;;;;;;;;5012065;28;20501;-73
2021/06/14 11:33:01;;;;;;;8.07;3.30;;;;;;;;;;5012931;28;20472;-72
2021/06/14 11:35:29;;;;;;;3.27;2.70;;;;;;;;;;5010305;28;20453;-72
2021/06/14 11:37:55;;;;;;;3.80;2.63;;;;;;;;;;5010812;28;20412;-73
2021/06/14 11:40:27;;;;;;;6.93;3.23;;;;;;;;;;5009550;28;20565;-73
2021/06/14 11:42:55;;;;;;;7.27;2.90;;;;;;;;;;5013923;28;20426;-72
2021/06/14 11:45:27;;;;;;;6.43;3.13;;;;;;;;;;5011475;28;20435;-72
2021/06/14 11:47:53;;;;;;;8.13;2.70;;;;;;;;;;5012271;28;20432;-73
2021/06/14 11:50:24;;;;;;;4.30;2.47;;;;;;;;;;5011761;28;20459;-72
2021/06/14 11:52:59;;;;;;;2.83;2.30;;;;;;;;;;5012428;28;20419;-73
2021/06/14 11:55:26;;;;;;;4.63;2.67;;;;;;;;;;5006735;28;20442;-73
2021/06/14 11:57:57;;;;;;;3.40;2.60;;;;;;;;;;5008972;28;20454;-72
2021/06/14 12:00:26;;;;;;;5.83;2.63;;;;;;;;;;5010530;28;20462;-72
2021/06/14 12:02:52;;;;;;;5.10;2.33;;;;;;;;;;5006982;28;20964;-72
2021/06/14 12:05:29;;;;;;;6.07;2.57;;;;;;;;;;5011979;28;20871;-73
2021/06/14 12:07:55;;;;;;;4.63;2.50;;;;;;;;;;5012237;28;20506;-72
2021/06/14 12:10:22;;;;;;;5.77;2.50;;;;;;;;;;5010586;28;20470;-73
2021/06/14 12:13:00;;;;;;;5.63;2.83;;;;;;;;;;5012916;28;20424;-73
2021/06/14 12:15:26;;;;;;;5.23;2.67;;;;;;;;;;5010904;28;20956;-72
2021/06/14 12:17:52;;;;;;;7.33;2.70;;;;;;;;;;5012215;28;20418;-72
2021/06/14 12:20:23;;;;;;;3.60;2.67;;;;;;;;;;5011962;28;20542;-72
2021/06/14 12:22:58;;;;;;;3.73;2.70;;;;;;;;;;5015425;28;20442;-71
2021/06/14 12:25:24;;;;;;;6.70;2.50;;;;;;;;;;5012822;28;20518;-72
2021/06/14 12:27:57;;;;;;;8.50;3.10;;;;;;;;;;5015456;28;20444;-72
2021/06/14 12:30:25;;;;;;;4.10;2.40;;;;;;;;;;5014482;28;20873;-72
2021/06/14 12:32:52;;;;;;;6.70;2.93;;;;;;;;;;5014242;28;20466;-72
2021/06/14 12:35:18;;;;;;;9.47;3.00;;;;;;;;;;5010566;28;20436;-70
2021/06/14 12:37:44;;;;;;;5.03;2.20;;;;;;;;;;5012255;28;20420;-70
2021/06/14 12:40:12;;;;;;;5.73;2.80;;;;;;;;;;5007525;28;20470;-70
2021/06/14 12:42:38;;;;;;;3.20;2.07;;;;;;;;;;5012418;28;20477;-70
2021/06/14 12:45:06;;;;;;;6.43;2.87;;;;;;;;;;5010391;28;20486;-71
2021/06/14 12:47:32;;;;;;;4.20;2.40;;;;;;;;;;5026384;28;20470;-68
2021/06/14 12:49:59;;;;;;;3.93;2.30;;;;;;;;;;5009268;28;20865;-68
2021/06/14 12:52:26;;;;;;;4.27;2.40;;;;;;;;;;5008263;28;20431;-68
2021/06/14 12:54:52;;;;;;;4.20;2.43;;;;;;;;;;5007716;28;20435;-68
2021/06/14 12:57:19;;;;;;;5.00;3.20;;;;;;;;;;5010751;28;20427;-68
2021/06/14 12:59:45;;;;;;;10.83;2.40;;;;;;;;;;5006936;28;20464;-67
2021/06/14 13:02:15;;;;;;;5.60;2.40;;;;;;;;;;5012091;28;20435;-67
2021/06/14 13:04:42;;;;;;;4.23;2.90;;;;;;;;;;5006302;28;20485;-69
2021/06/14 13:07:12;;;;;;;4.17;2.60;;;;;;;;;;5011578;28;21023;-67
2021/06/14 13:09:48;;;;;;;4.07;2.17;;;;;;;;;;5007322;28;20852;-68
2021/06/14 13:12:25;;;;;;;5.30;2.37;;;;;;;;;;5010110;28;20415;-69
2021/06/14 13:14:51;;;;;;;4.87;2.50;;;;;;;;;;5018338;28;20521;-70
2021/06/14 13:17:26;;;;;;;10.33;2.63;;;;;;;;;;5011308;28;20529;-69
2021/06/14 13:19:51;;;;;;;7.00;2.10;;;;;;;;;;5009649;28;20460;-70
2021/06/14 13:22:21;;;;;;;4.27;2.33;;;;;;;;;;5011609;28;20419;-69
2021/06/14 13:24:48;;;;;;;4.77;2.30;;;;;;;;;;5008365;28;20423;-70
2021/06/14 13:27:14;;;;;;;6.70;2.63;;;;;;;;;;5008464;28;20427;-70
2021/06/14 13:29:51;;;;;;;5.77;2.63;;;;;;;;;;5002361;28;20467;-68
2021/06/14 13:32:36;;;;;;;5.87;2.17;;;;;;;;;;5004932;28;20887;-70
2021/06/14 13:35:03;;;;;;;7.70;2.60;;;;;;;;;;5010680;28;20431;-70
2021/06/14 13:37:36;;;;;;;3.60;2.00;;;;;;;;;;5010112;28;20485;-70
2021/06/14 13:40:16;;;;;;;7.23;2.50;;;;;;;;;;5007898;28;20455;-70
2021/06/14 13:42:54;;;;;;;3.93;2.50;;;;;;;;;;5011809;28;20473;-70
2021/06/14 13:45:39;;;;;;;7.97;2.80;;;;;;;;;;5007278;28;20485;-70
2021/06/14 13:48:05;;;;;;;3.70;2.23;;;;;;;;;;5011592;28;20550;-70
2021/06/14 13:50:32;;;;;;;6.70;3.17;;;;;;;;;;5010507;28;20467;-70
2021/06/14 13:53:07;;;;;;;6.83;2.50;;;;;;;;;;5011091;28;20940;-70
2021/06/14 13:55:34;;;;;;;7.03;2.47;;;;;;;;;;5006700;28;20759;-70
2021/06/14 13:58:00;;;;;;;5.07;2.27;;;;;;;;;;5009381;28;20452;-70
2021/06/14 14:00:27;;;;;;;4.97;3.20;;;;;;;;;;5007927;28;20547;-70
2021/06/14 14:02:55;;;;;;;3.50;2.10;;;;;;;;;;5000355;28;20424;-70
2021/06/14 14:05:22;;;;;;;5.30;2.00;;;;;;;;;;5004040;28;20435;-69
2021/06/14 14:07:48;;;;;;;3.80;2.00;;;;;;;;;;5011299;28;20458;-70
2021/06/14 14:10:14;;;;;;;3.50;1.77;;;;;;;;;;5005353;28;20510;-70
2021/06/14 14:12:40;;;;;;;6.07;2.20;;;;;;;;;;5011201;28;20935;-70
2021/06/14 14:15:07;;;;;;;3.33;2.30;;;;;;;;;;5008192;28;20535;-70
2021/06/14 14:17:33;;;;;;;5.37;2.30;;;;;;;;;;5009501;28;20501;-70
2021/06/14 14:20:02;;;;;;;3.23;2.33;;;;;;;;;;5009926;28;20444;-70
2021/06/14 14:22:28;;;;;;;5.00;1.90;;;;;;;;;;5010429;28;20421;-71
2021/06/14 14:24:54;;;;;;;3.80;1.90;;;;;;;;;;5000032;28;20566;-70
2021/06/14 14:27:21;;;;;;;3.33;1.83;;;;;;;;;;5009077;28;20477;-70
2021/06/14 14:29:47;;;;;;;5.27;2.27;;;;;;;;;;5008312;28;20478;-70
2021/06/14 14:32:13;;;;;;;5.77;2.30;;;;;;;;;;5007383;28;20812;-71
2021/06/14 14:34:41;;;;;;;2.57;1.60;;;;;;;;;;5009280;28;20426;-70
2021/06/14 14:37:08;;;;;;;5.23;2.10;;;;;;;;;;5014513;28;20458;-70
2021/06/14 14:39:37;;;;;;;4.87;2.00;;;;;;;;;;5014497;28;20431;-70
2021/06/14 14:42:05;;;;;;;4.13;2.43;;;;;;;;;;5012712;28;20910;-70
2021/06/14 14:44:32;;;;;;;4.50;2.40;;;;;;;;;;5011668;28;20415;-71
2021/06/14 14:47:03;;;;;;;7.63;2.13;;;;;;;;;;5000014;28;20431;-71
2021/06/14 14:49:29;;;;;;;4.03;2.30;;;;;;;;;;5014382;28;20458;-71